createdAt,value
2023-02-23T00:01:54.977Z,20.40
2023-02-23T00:04:23.477Z,19.65
2023-02-23T00:06:52.092Z,20.20
2023-02-23T00:09:24.406Z,20.42
2023-02-23T00:11:53.786Z,21.00
2023-02-23T00:14:23.121Z,20.90
2023-02-23T00:16:51.104Z,20.60
2023-02-23T00:19:20.906Z,20.42
2023-02-23T00:21:48.698Z,22.58
2023-02-23T00:24:18.972Z,21.02
2023-02-23T00:26:48.132Z,22.30
2023-02-23T00:29:18.143Z,21.60
2023-02-23T00:31:46.718Z,20.60
2023-02-23T00:34:16.465Z,21.45
2023-02-23T00:36:45.563Z,20.75
2023-02-23T00:39:18.465Z,20.55
2023-02-23T00:41:47.306Z,20.27
2023-02-23T00:44:16.203Z,23.25
2023-02-23T00:46:45.306Z,22.30
2023-02-23T00:49:14.631Z,21.00
2023-02-23T00:51:42.896Z,21.48
2023-02-23T00:54:14.124Z,20.63
2023-02-23T00:56:41.975Z,21.23
2023-02-23T00:59:10.154Z,20.70
2023-02-23T01:01:38.494Z,21.70
2023-02-23T01:04:07.155Z,21.10
2023-02-23T01:06:37.435Z,21.15
2023-02-23T01:09:09.650Z,22.00
2023-02-23T01:11:38.845Z,22.20
2023-02-23T01:14:06.639Z,20.73
2023-02-23T01:16:35.935Z,21.38
2023-02-23T01:19:05.696Z,22.50
2023-02-23T01:21:36.422Z,21.25
2023-02-23T01:24:04.636Z,21.43
2023-02-23T01:26:35.527Z,22.33
2023-02-23T01:29:08.585Z,21.95
2023-02-23T01:31:37.739Z,22.33
2023-02-23T01:34:06.896Z,21.42
2023-02-23T01:36:36.655Z,22.08
2023-02-23T01:39:07.507Z,22.95
2023-02-23T01:41:37.168Z,23.10
2023-02-23T01:44:08.460Z,22.80
2023-02-23T01:46:38.974Z,23.80
2023-02-23T01:49:09.900Z,23.50
2023-02-23T01:51:42.985Z,23.33
2023-02-23T01:54:15.790Z,22.70
2023-02-23T01:56:46.552Z,22.85
2023-02-23T01:59:16.561Z,23.08
2023-02-23T02:01:45.429Z,23.92
2023-02-23T02:04:16.420Z,23.90
2023-02-23T02:06:47.829Z,24.92
2023-02-23T02:09:19.608Z,24.15
2023-02-23T02:11:54.000Z,23.10
2023-02-23T02:14:27.551Z,23.27
2023-02-23T02:17:17.056Z,23.55
2023-02-23T02:20:42.847Z,23.88
2023-02-23T02:23:48.193Z,24.27
2023-02-23T02:26:24.170Z,23.83
2023-02-23T02:29:46.143Z,23.17
2023-02-23T02:33:01.953Z,24.95
2023-02-23T02:36:17.637Z,24.05
2023-02-23T02:38:58.788Z,25.02
2023-02-23T02:41:36.873Z,24.15
2023-02-23T02:44:16.105Z,24.42
2023-02-23T02:46:49.477Z,25.02
2023-02-23T02:49:26.629Z,24.23
2023-02-23T02:52:01.176Z,24.33
2023-02-23T02:54:36.869Z,23.73
2023-02-23T02:57:06.500Z,24.43
2023-02-23T03:00:01.792Z,23.95
2023-02-23T03:02:47.835Z,23.40
2023-02-23T03:05:34.696Z,23.90
2023-02-23T03:08:27.880Z,24.92
2023-02-23T03:11:21.192Z,24.65
2023-02-23T03:14:18.771Z,25.13
2023-02-23T03:17:11.471Z,25.55
2023-02-23T03:20:06.904Z,26.10
2023-02-23T03:22:58.890Z,25.35
2023-02-23T03:25:50.514Z,25.58
2023-02-23T03:28:40.705Z,25.70
2023-02-23T03:31:33.232Z,25.50
2023-02-23T03:34:26.017Z,26.33
2023-02-23T03:37:20.040Z,25.55
2023-02-23T03:40:10.931Z,25.83
2023-02-23T03:42:58.300Z,25.58
2023-02-23T03:45:47.033Z,25.77
2023-02-23T03:48:36.902Z,24.55
2023-02-23T03:51:25.724Z,26.60
2023-02-23T03:54:17.105Z,26.45
2023-02-23T03:57:09.102Z,25.65
2023-02-23T04:00:01.085Z,27.23
2023-02-23T04:02:49.397Z,27.98
2023-02-23T04:05:38.183Z,26.67
2023-02-23T04:08:28.195Z,26.48
2023-02-23T04:11:18.798Z,28.33
2023-02-23T04:13:50.984Z,26.92
2023-02-23T04:16:18.463Z,27.07
2023-02-23T04:18:47.638Z,28.30
2023-02-23T04:21:15.396Z,28.05
2023-02-23T04:23:44.060Z,27.00
2023-02-23T04:26:11.840Z,26.53
2023-02-23T04:28:39.694Z,27.25
2023-02-23T04:31:07.511Z,25.88
2023-02-23T04:33:35.275Z,24.95
2023-02-23T04:36:04.809Z,26.77
2023-02-23T04:38:32.590Z,25.63
2023-02-23T04:41:00.361Z,26.85
2023-02-23T04:43:28.384Z,26.35
2023-02-23T04:45:56.148Z,26.58
2023-02-23T04:48:25.033Z,26.27
2023-02-23T04:50:53.771Z,25.70
2023-02-23T04:53:22.934Z,27.20
2023-02-23T04:55:50.737Z,26.33
2023-02-23T04:58:18.549Z,27.13
2023-02-23T05:00:46.397Z,26.67
2023-02-23T05:03:14.350Z,25.73
2023-02-23T05:05:42.144Z,26.20
2023-02-23T05:08:10.470Z,25.73
2023-02-23T05:10:40.454Z,24.83
2023-02-23T05:13:08.506Z,26.50
2023-02-23T05:15:37.003Z,27.35
2023-02-23T05:18:05.279Z,28.02
2023-02-23T05:20:33.067Z,27.70
2023-02-23T05:23:00.817Z,25.77
2023-02-23T05:25:28.658Z,25.92
2023-02-23T05:27:57.785Z,26.47
2023-02-23T05:30:25.580Z,25.00
2023-02-23T05:32:53.460Z,27.63
2023-02-23T05:35:21.217Z,27.05
2023-02-23T05:37:49.003Z,27.17
2023-02-23T05:40:16.916Z,27.88
2023-02-23T05:42:45.051Z,28.92
2023-02-23T05:45:14.508Z,26.52
2023-02-23T05:47:42.279Z,28.00
2023-02-23T05:50:12.432Z,27.48
2023-02-23T05:52:41.877Z,28.40
2023-02-23T05:55:12.478Z,26.45
2023-02-23T05:57:40.883Z,25.80
2023-02-23T06:00:09.994Z,25.23
2023-02-23T06:02:39.236Z,28.33
2023-02-23T06:05:08.185Z,27.00
2023-02-23T06:07:35.990Z,26.90
2023-02-23T06:10:03.857Z,26.10
2023-02-23T06:12:31.752Z,26.40
2023-02-23T06:14:59.497Z,26.65
2023-02-23T06:17:27.376Z,27.27
2023-02-23T06:19:56.499Z,26.10
2023-02-23T06:22:24.252Z,24.55
2023-02-23T06:24:52.050Z,25.67
2023-02-23T06:27:19.820Z,26.42
2023-02-23T06:29:47.601Z,25.08
2023-02-23T06:32:15.517Z,24.77
2023-02-23T06:34:44.769Z,24.45
2023-02-23T06:37:13.959Z,25.05
2023-02-23T06:39:41.785Z,24.58
2023-02-23T06:42:09.552Z,23.45
2023-02-23T06:44:37.700Z,23.50
2023-02-23T06:47:06.464Z,22.50
2023-02-23T06:49:34.440Z,23.75
2023-02-23T06:52:02.191Z,23.15
2023-02-23T06:54:31.449Z,23.23
2023-02-23T06:56:59.222Z,24.17
2023-02-23T06:59:27.092Z,24.10
2023-02-23T07:01:54.949Z,25.67
2023-02-23T07:04:22.776Z,24.33
2023-02-23T07:06:50.655Z,24.58
2023-02-23T07:09:18.526Z,23.98
2023-02-23T07:11:47.815Z,24.42
2023-02-23T07:14:26.207Z,24.20
2023-02-23T07:16:54.763Z,23.60
2023-02-23T07:19:23.293Z,23.65
2023-02-23T07:21:51.107Z,23.30
2023-02-23T07:24:18.916Z,23.53
2023-02-23T07:26:49.202Z,23.80
2023-02-23T07:29:17.465Z,23.47
2023-02-23T07:31:45.598Z,23.02
2023-02-23T07:34:13.458Z,22.38
2023-02-23T07:36:41.377Z,21.70
2023-02-23T07:39:09.299Z,22.73
2023-02-23T07:41:37.408Z,22.00
2023-02-23T07:44:07.177Z,23.27
2023-02-23T07:46:35.012Z,22.00
2023-02-23T07:49:02.807Z,23.67
2023-02-23T07:51:30.606Z,22.55
2023-02-23T07:54:03.528Z,22.23
2023-02-23T07:56:31.289Z,21.90
2023-02-23T07:58:59.140Z,21.77
2023-02-23T08:01:28.470Z,20.30
2023-02-23T08:03:56.290Z,20.65
2023-02-23T08:06:24.102Z,20.55
2023-02-23T08:08:51.967Z,19.98
2023-02-23T08:11:20.015Z,19.73
2023-02-23T08:13:48.023Z,19.20
2023-02-23T08:16:16.568Z,20.77
2023-02-23T08:18:46.126Z,19.58
2023-02-23T08:21:13.934Z,28.10
2023-02-23T08:23:41.761Z,20.30
2023-02-23T08:26:09.532Z,20.30
2023-02-23T08:28:37.309Z,19.83
2023-02-23T08:31:09.578Z,20.60
2023-02-23T08:33:38.673Z,21.45
2023-02-23T08:36:08.765Z,20.23
2023-02-23T08:38:37.336Z,19.35
2023-02-23T08:41:06.616Z,20.25
2023-02-23T08:43:34.403Z,22.65
2023-02-23T08:46:02.258Z,20.08
2023-02-23T08:48:29.999Z,20.30
2023-02-23T08:50:58.522Z,20.55
2023-02-23T08:53:29.529Z,21.05
2023-02-23T08:55:58.558Z,20.30
2023-02-23T08:58:26.436Z,21.77
2023-02-23T09:00:54.472Z,19.35
2023-02-23T09:03:22.897Z,19.80
2023-02-23T09:05:50.959Z,20.50
2023-02-23T09:08:18.867Z,20.30
2023-02-23T09:10:48.002Z,20.48
2023-02-23T09:13:17.114Z,20.33
2023-02-23T09:15:44.962Z,19.80
2023-02-23T09:18:14.652Z,19.90
2023-02-23T09:20:43.390Z,19.92
2023-02-23T09:23:11.464Z,19.35
2023-02-23T09:25:43.209Z,18.07
2023-02-23T09:28:13.341Z,18.58
2023-02-23T09:30:41.773Z,18.42
2023-02-23T09:33:10.163Z,17.27
2023-02-23T09:35:38.717Z,18.20
2023-02-23T09:38:08.310Z,17.50
2023-02-23T09:40:45.284Z,15.65
2023-02-23T09:43:18.093Z,16.13
2023-02-23T09:45:52.099Z,15.07
2023-02-23T09:48:22.227Z,14.30
2023-02-23T09:50:52.331Z,15.05
2023-02-23T09:53:33.882Z,14.82
2023-02-23T09:56:04.054Z,14.73
2023-02-23T09:58:35.526Z,15.20
2023-02-23T10:01:46.298Z,14.73
2023-02-23T10:04:19.858Z,14.68
2023-02-23T10:06:55.444Z,13.15
2023-02-23T10:09:29.093Z,12.52
2023-02-23T10:12:03.801Z,12.07
2023-02-23T10:14:52.817Z,12.23
2023-02-23T10:17:30.156Z,11.73
2023-02-23T10:20:04.230Z,10.85
2023-02-23T10:22:34.692Z,11.20
2023-02-23T10:25:07.260Z,10.88
2023-02-23T10:27:41.936Z,10.80
2023-02-23T10:30:19.923Z,10.37
2023-02-23T10:32:53.384Z,11.40
2023-02-23T10:35:23.071Z,10.75
2023-02-23T10:37:52.545Z,11.10
2023-02-23T10:40:23.415Z,11.15
2023-02-23T10:42:51.632Z,11.87
2023-02-23T10:45:24.534Z,13.00
2023-02-23T10:47:57.776Z,11.30
2023-02-23T10:50:28.830Z,11.02
2023-02-23T10:53:00.857Z,11.25
2023-02-23T10:55:30.615Z,11.27
2023-02-23T10:58:10.649Z,11.60
2023-02-23T11:00:41.464Z,11.40
2023-02-23T11:03:20.080Z,11.32
2023-02-23T11:05:53.117Z,10.57
2023-02-23T11:08:24.036Z,11.02
2023-02-23T11:11:03.082Z,11.47
2023-02-23T11:13:36.425Z,10.80
2023-02-23T11:16:10.139Z,11.27
2023-02-23T11:18:40.184Z,11.20
2023-02-23T11:21:13.287Z,11.57
2023-02-23T11:23:42.447Z,11.68
2023-02-23T11:26:33.356Z,12.55
2023-02-23T11:29:11.097Z,11.80
2023-02-23T11:31:41.001Z,12.07
2023-02-23T11:34:08.969Z,12.93
2023-02-23T11:36:38.383Z,13.30
2023-02-23T11:39:16.657Z,13.18
2023-02-23T11:41:44.650Z,12.80
2023-02-23T11:44:22.030Z,12.93
2023-02-23T11:46:52.490Z,11.03
2023-02-23T11:49:23.658Z,10.20
2023-02-23T11:51:54.354Z,11.13
2023-02-23T11:54:26.821Z,9.70
2023-02-23T11:56:55.393Z,10.13
2023-02-23T11:59:30.849Z,9.57
2023-02-23T12:02:06.890Z,10.57
2023-02-23T12:04:38.089Z,10.55
2023-02-23T12:07:41.306Z,11.10
2023-02-23T12:10:15.567Z,11.40
2023-02-23T12:12:54.643Z,11.02
2023-02-23T12:15:31.392Z,11.50
2023-02-23T12:18:06.647Z,11.32
2023-02-23T12:20:42.256Z,9.68
2023-02-23T12:23:13.482Z,9.35
2023-02-23T12:25:47.406Z,9.63
2023-02-23T12:28:21.680Z,8.60
2023-02-23T12:30:52.364Z,9.27
2023-02-23T12:33:30.080Z,9.07
2023-02-23T12:36:01.660Z,8.07
2023-02-23T12:38:48.625Z,9.50
2023-02-23T12:41:21.120Z,7.90
2023-02-23T12:43:51.717Z,7.45
2023-02-23T12:46:23.939Z,8.50
2023-02-23T12:49:01.423Z,7.70
2023-02-23T12:51:34.152Z,7.50
2023-02-23T12:54:02.317Z,6.88
2023-02-23T12:56:58.571Z,7.40
2023-02-23T12:59:49.766Z,6.70
2023-02-23T13:02:25.746Z,7.10
2023-02-23T13:05:17.210Z,8.40
2023-02-23T13:07:59.285Z,7.97
2023-02-23T13:10:46.968Z,6.82
2023-02-23T13:13:26.695Z,6.18
2023-02-23T13:16:04.300Z,5.57
2023-02-23T13:18:38.229Z,5.40
2023-02-23T13:21:16.070Z,12.20
2023-02-23T13:23:55.634Z,5.60
2023-02-23T13:26:31.318Z,5.45
2023-02-23T13:29:03.804Z,5.03
2023-02-23T13:31:35.396Z,4.93
2023-02-23T13:34:04.609Z,4.22
2023-02-23T13:36:35.354Z,3.95
2023-02-23T13:39:36.228Z,4.18
2023-02-23T13:42:17.558Z,4.35
2023-02-23T13:44:50.728Z,3.80
2023-02-23T13:47:39.522Z,3.95
2023-02-23T13:50:22.418Z,3.50
2023-02-23T13:52:58.175Z,3.30
2023-02-23T13:55:51.581Z,4.88
2023-02-23T13:58:23.354Z,3.10
2023-02-23T14:01:05.076Z,4.78
2023-02-23T14:03:38.004Z,5.78
2023-02-23T14:06:07.707Z,3.40
2023-02-23T14:08:39.967Z,4.10
2023-02-23T14:11:07.966Z,4.77
2023-02-23T14:13:41.123Z,5.03
2023-02-23T14:16:20.635Z,4.20
2023-02-23T14:18:57.774Z,3.35
2023-02-23T14:21:33.726Z,5.97
2023-02-23T14:24:17.360Z,4.57
2023-02-23T14:27:07.318Z,3.93
2023-02-23T14:29:41.026Z,4.22
2023-02-23T14:32:30.865Z,4.10
2023-02-23T14:35:00.740Z,5.57
2023-02-23T14:37:32.527Z,3.83
2023-02-23T14:40:12.636Z,5.05
2023-02-23T14:42:41.561Z,4.40
2023-02-23T14:45:20.178Z,5.80
2023-02-23T14:47:49.401Z,5.70
2023-02-23T14:50:25.636Z,4.38
2023-02-23T14:52:56.113Z,4.60
2023-02-23T14:55:29.099Z,4.38
2023-02-23T14:57:58.020Z,5.20
2023-02-23T15:00:28.031Z,4.43
2023-02-23T15:02:59.195Z,4.32
2023-02-23T15:05:29.688Z,4.95
2023-02-23T15:08:00.864Z,4.57
2023-02-23T15:10:33.967Z,6.18
2023-02-23T15:13:08.650Z,4.88
2023-02-23T15:15:39.181Z,4.20
2023-02-23T15:18:06.982Z,5.22
2023-02-23T15:23:04.342Z,4.93
2023-02-23T15:25:39.692Z,5.07
2023-02-23T15:28:29.501Z,5.63
2023-02-23T15:31:01.200Z,5.25
2023-02-23T15:33:30.161Z,4.45
2023-02-23T15:36:10.237Z,4.47
2023-02-23T15:38:44.548Z,5.57
2023-02-23T15:41:26.336Z,5.30
2023-02-23T15:43:56.081Z,5.27
2023-02-23T15:46:27.667Z,5.17
2023-02-23T15:49:00.616Z,6.33
2023-02-23T15:51:35.046Z,5.35
2023-02-23T15:54:07.729Z,5.87
2023-02-23T15:56:38.025Z,5.65
2023-02-23T15:59:12.919Z,4.97
2023-02-23T16:01:44.935Z,5.63
2023-02-23T16:04:18.295Z,4.55
2023-02-23T16:06:55.098Z,6.28
2023-02-23T16:09:28.395Z,5.17
2023-02-23T16:12:03.076Z,5.45
2023-02-23T16:14:36.043Z,5.28
2023-02-23T16:17:11.476Z,5.00
2023-02-23T16:19:41.602Z,5.05
2023-02-23T16:22:24.639Z,5.40
2023-02-23T16:24:59.658Z,5.57
2023-02-23T16:27:30.207Z,5.85
2023-02-23T16:30:02.064Z,5.93
2023-02-23T16:32:39.341Z,6.03
2023-02-23T16:35:16.698Z,6.07
2023-02-23T16:37:56.497Z,7.80
2023-02-23T16:40:24.284Z,5.85
2023-02-23T16:42:58.911Z,4.97
2023-02-23T16:45:27.444Z,5.70
2023-02-23T16:48:01.676Z,5.75
2023-02-23T16:50:30.141Z,6.22
2023-02-23T16:52:57.905Z,6.00
2023-02-23T16:55:28.012Z,6.28
2023-02-23T16:58:00.010Z,6.55
2023-02-23T17:00:30.553Z,6.40
2023-02-23T17:03:00.468Z,8.18
2023-02-23T17:05:30.035Z,6.40
2023-02-23T17:07:58.910Z,5.40
2023-02-23T17:10:29.333Z,5.90
2023-02-23T17:12:59.944Z,6.28
2023-02-23T17:15:30.876Z,6.00
2023-02-23T17:17:58.777Z,6.78
2023-02-23T17:20:29.481Z,8.23
2023-02-23T17:22:59.310Z,7.38
2023-02-23T17:25:27.371Z,7.17
2023-02-23T17:27:55.227Z,9.23
2023-02-23T17:30:25.167Z,7.63
2023-02-23T17:32:54.578Z,7.40
2023-02-23T17:35:23.549Z,8.57
2023-02-23T17:37:51.449Z,8.25
2023-02-23T17:40:26.238Z,8.70
2023-02-23T17:42:54.153Z,6.95
2023-02-23T17:45:22.434Z,7.40
2023-02-23T17:47:51.870Z,8.48
2023-02-23T17:50:21.471Z,8.35
2023-02-23T17:52:49.556Z,8.18
2023-02-23T17:55:18.187Z,11.02
2023-02-23T17:57:46.495Z,7.97
2023-02-23T18:00:16.261Z,8.38
2023-02-23T18:02:45.124Z,9.70
2023-02-23T18:05:15.112Z,9.87
2023-02-23T18:07:43.284Z,10.05
2023-02-23T18:10:13.193Z,8.97
2023-02-23T18:12:41.126Z,10.55
2023-02-23T18:15:09.546Z,11.13
2023-02-23T18:17:37.408Z,11.73
2023-02-23T18:20:06.944Z,10.32
2023-02-23T18:22:36.120Z,9.95
2023-02-23T18:25:04.155Z,10.73
2023-02-23T18:27:31.931Z,12.10
2023-02-23T18:29:59.993Z,12.02
2023-02-23T18:32:28.061Z,10.98
2023-02-23T18:34:56.786Z,11.77
2023-02-23T18:37:28.850Z,11.30
2023-02-23T18:39:59.257Z,9.88
2023-02-23T18:42:27.141Z,11.05
2023-02-23T18:44:54.965Z,11.37
2023-02-23T18:47:22.939Z,10.65
2023-02-23T18:49:52.630Z,11.32
2023-02-23T18:52:20.465Z,11.40
2023-02-23T18:54:48.319Z,11.88
2023-02-23T18:57:17.426Z,12.45
2023-02-23T18:59:45.989Z,11.97
2023-02-23T19:02:13.777Z,11.00
2023-02-23T19:04:41.741Z,12.27
2023-02-23T19:07:09.564Z,11.70
2023-02-23T19:09:40.657Z,12.38
2023-02-23T19:12:08.753Z,11.43
2023-02-23T19:14:49.165Z,12.95
2023-02-23T19:17:17.568Z,11.82
2023-02-23T19:19:45.411Z,12.48
2023-02-23T19:22:13.182Z,12.50
2023-02-23T19:24:41.773Z,13.57
2023-02-23T19:27:10.021Z,12.55
2023-02-23T19:29:39.412Z,12.93
2023-02-23T19:32:07.405Z,9.90
2023-02-23T19:34:35.348Z,11.82
2023-02-23T19:37:03.326Z,11.40
2023-02-23T19:39:31.092Z,10.82
2023-02-23T19:41:59.018Z,11.32
2023-02-23T19:44:26.875Z,12.00
2023-02-23T19:46:56.915Z,11.85
2023-02-23T19:49:25.562Z,10.52
2023-02-23T19:51:53.841Z,10.70
2023-02-23T19:54:21.961Z,11.75
2023-02-23T19:56:50.521Z,12.68
2023-02-23T19:59:18.323Z,14.27
2023-02-23T20:01:46.205Z,14.82
2023-02-23T20:04:15.446Z,15.77
2023-02-23T20:06:46.840Z,16.17
2023-02-23T20:09:16.539Z,15.95
2023-02-23T20:11:44.346Z,16.55
2023-02-23T20:14:12.413Z,14.40
2023-02-23T20:16:40.379Z,14.88
2023-02-23T20:19:08.206Z,14.53
2023-02-23T20:21:37.608Z,14.35
2023-02-23T20:24:06.395Z,15.20
2023-02-23T20:26:36.776Z,15.73
2023-02-23T20:29:06.642Z,16.60
2023-02-23T20:31:36.751Z,16.70
2023-02-23T20:34:07.526Z,15.60
2023-02-23T20:36:36.746Z,15.90
2023-02-23T20:39:05.127Z,16.27
2023-02-23T20:41:32.913Z,15.18
2023-02-23T20:44:01.616Z,15.95
2023-02-23T20:46:30.394Z,15.88
2023-02-23T20:48:59.522Z,15.68
2023-02-23T20:51:28.225Z,17.25
2023-02-23T20:53:57.337Z,17.95
2023-02-23T20:56:25.418Z,17.45
2023-02-23T20:58:54.218Z,15.55
2023-02-23T21:01:25.770Z,15.70
2023-02-23T21:03:54.948Z,20.98
2023-02-23T21:06:25.262Z,18.58
2023-02-23T21:08:55.683Z,17.80
2023-02-23T21:11:26.437Z,18.00
2023-02-23T21:13:54.521Z,18.73
2023-02-23T21:16:24.153Z,21.02
2023-02-23T21:18:56.821Z,18.52
2023-02-23T21:21:24.632Z,19.02
2023-02-23T21:23:52.413Z,18.65
2023-02-23T21:26:21.504Z,18.17
2023-02-23T21:28:50.734Z,18.58
2023-02-23T21:31:19.000Z,19.03
2023-02-23T21:33:47.044Z,19.08
2023-02-23T21:36:15.169Z,18.90
2023-02-23T21:38:44.958Z,17.95
2023-02-23T21:41:14.201Z,17.52
2023-02-23T21:43:45.047Z,17.75
2023-02-23T21:46:15.563Z,19.90
2023-02-23T21:48:44.396Z,18.08
2023-02-23T21:51:14.632Z,17.75
2023-02-23T21:53:43.579Z,16.33
2023-02-23T21:56:14.225Z,16.02
2023-02-23T21:58:47.382Z,17.13
2023-02-23T22:01:18.341Z,17.23
2023-02-23T22:03:47.152Z,16.52
2023-02-23T22:06:17.227Z,17.35
2023-02-23T22:08:45.063Z,16.67
2023-02-23T22:11:17.204Z,14.13
2023-02-23T22:13:45.576Z,14.65
2023-02-23T22:16:14.318Z,15.32
2023-02-23T22:18:43.879Z,16.08
2023-02-23T22:21:12.664Z,15.60
2023-02-23T22:23:41.437Z,16.27
2023-02-23T22:26:09.307Z,15.05
2023-02-23T22:28:37.470Z,15.57
2023-02-23T22:31:08.195Z,14.07
2023-02-23T22:33:36.400Z,12.98
2023-02-23T22:36:07.999Z,14.60
2023-02-23T22:38:36.089Z,16.33
2023-02-23T22:41:06.124Z,14.95
2023-02-23T22:43:34.226Z,15.82
2023-02-23T22:46:02.059Z,15.52
2023-02-23T22:48:29.856Z,14.38
2023-02-23T22:50:57.691Z,14.20
2023-02-23T22:53:27.674Z,14.27
2023-02-23T22:55:56.733Z,15.80
2023-02-23T22:58:26.237Z,14.98
2023-02-23T23:01:04.014Z,17.23
2023-02-23T23:03:34.612Z,15.07
2023-02-23T23:06:04.486Z,14.82
2023-02-23T23:08:36.769Z,15.13
2023-02-23T23:11:09.323Z,14.88
2023-02-23T23:13:43.113Z,14.63
2023-02-23T23:16:16.839Z,13.83
2023-02-23T23:18:54.270Z,14.43
2023-02-23T23:21:24.416Z,13.15
2023-02-23T23:23:55.836Z,14.38
2023-02-23T23:26:25.636Z,14.57
2023-02-23T23:28:55.425Z,14.52
2023-02-23T23:31:28.012Z,13.73
2023-02-23T23:34:00.060Z,13.90
2023-02-23T23:36:33.317Z,13.25
2023-02-23T23:39:03.788Z,12.02
2023-02-23T23:41:35.255Z,13.95
2023-02-23T23:44:05.086Z,11.95
2023-02-23T23:46:35.663Z,11.63
2023-02-23T23:49:05.960Z,12.77
2023-02-23T23:51:38.870Z,13.60
2023-02-23T23:54:09.612Z,13.70
2023-02-23T23:56:37.799Z,14.87
2023-02-23T23:59:07.482Z,15.13
